sensor_id;sensor_type;location;lat;lon;timestamp;P1;durP1;ratioP1;P2;durP2;ratioP2
4222;SDS011;2125;51.436;14.138;2022-07-04T00:01:06;8.03;;;5.93;;
4222;SDS011;2125;51.436;14.138;2022-07-04T00:03:33;11.27;;;6.17;;
4222;SDS011;2125;51.436;14.138;2022-07-04T00:05:59;7.10;;;6.23;;
4222;SDS011;2125;51.436;14.138;2022-07-04T00:08:26;10.17;;;6.40;;
4222;SDS011;2125;51.436;14.138;2022-07-04T00:10:52;7.80;;;5.47;;
4222;SDS011;2125;51.436;14.138;2022-07-04T00:13:19;10.00;;;6.37;;
4222;SDS011;2125;51.436;14.138;2022-07-04T00:15:46;11.23;;;5.90;;
4222;SDS011;2125;51.436;14.138;2022-07-04T00:18:14;7.93;;;6.50;;
4222;SDS011;2125;51.436;14.138;2022-07-04T00:20:40;8.53;;;7.10;;
4222;SDS011;2125;51.436;14.138;2022-07-04T00:23:07;8.10;;;6.70;;
4222;SDS011;2125;51.436;14.138;2022-07-04T00:25:34;8.90;;;7.63;;
4222;SDS011;2125;51.436;14.138;2022-07-04T00:28:00;9.50;;;7.07;;
4222;SDS011;2125;51.436;14.138;2022-07-04T00:30:27;9.30;;;6.90;;
4222;SDS011;2125;51.436;14.138;2022-07-04T00:32:53;9.23;;;6.80;;
4222;SDS011;2125;51.436;14.138;2022-07-04T00:35:21;9.27;;;6.93;;
4222;SDS011;2125;51.436;14.138;2022-07-04T00:37:48;7.77;;;6.90;;
4222;SDS011;2125;51.436;14.138;2022-07-04T00:40:14;7.67;;;6.87;;
4222;SDS011;2125;51.436;14.138;2022-07-04T00:42:41;8.10;;;7.30;;
4222;SDS011;2125;51.436;14.138;2022-07-04T00:45:08;9.10;;;6.93;;
4222;SDS011;2125;51.436;14.138;2022-07-04T00:47:35;8.30;;;6.90;;
4222;SDS011;2125;51.436;14.138;2022-07-04T00:50:02;7.73;;;6.30;;
4222;SDS011;2125;51.436;14.138;2022-07-04T00:52:31;7.33;;;6.63;;
4222;SDS011;2125;51.436;14.138;2022-07-04T00:54:57;12.93;;;6.80;;
4222;SDS011;2125;51.436;14.138;2022-07-04T00:57:26;8.13;;;7.27;;
4222;SDS011;2125;51.436;14.138;2022-07-04T00:59:53;10.40;;;7.23;;
4222;SDS011;2125;51.436;14.138;2022-07-04T01:02:19;9.13;;;6.90;;
4222;SDS011;2125;51.436;14.138;2022-07-04T01:04:46;8.37;;;6.83;;
4222;SDS011;2125;51.436;14.138;2022-07-04T01:07:12;8.73;;;6.90;;
4222;SDS011;2125;51.436;14.138;2022-07-04T01:09:40;8.80;;;6.90;;
4222;SDS011;2125;51.436;14.138;2022-07-04T01:12:08;12.67;;;7.13;;
4222;SDS011;2125;51.436;14.138;2022-07-04T01:14:36;9.87;;;7.07;;
4222;SDS011;2125;51.436;14.138;2022-07-04T01:17:03;10.00;;;7.23;;
4222;SDS011;2125;51.436;14.138;2022-07-04T01:19:30;11.60;;;7.40;;
4222;SDS011;2125;51.436;14.138;2022-07-04T01:21:58;8.00;;;7.13;;
4222;SDS011;2125;51.436;14.138;2022-07-04T01:24:31;8.63;;;7.50;;
4222;SDS011;2125;51.436;14.138;2022-07-04T01:26:57;11.27;;;7.03;;
4222;SDS011;2125;51.436;14.138;2022-07-04T01:29:24;9.53;;;7.00;;
4222;SDS011;2125;51.436;14.138;2022-07-04T01:31:50;10.07;;;7.30;;
4222;SDS011;2125;51.436;14.138;2022-07-04T01:34:18;9.90;;;8.37;;
4222;SDS011;2125;51.436;14.138;2022-07-04T01:36:45;10.40;;;8.40;;
4222;SDS011;2125;51.436;14.138;2022-07-04T01:39:13;13.17;;;8.60;;
4222;SDS011;2125;51.436;14.138;2022-07-04T01:41:39;10.70;;;8.10;;
4222;SDS011;2125;51.436;14.138;2022-07-04T01:44:06;10.20;;;7.70;;
4222;SDS011;2125;51.436;14.138;2022-07-04T01:46:32;8.80;;;7.90;;
4222;SDS011;2125;51.436;14.138;2022-07-04T01:48:59;9.90;;;7.53;;
4222;SDS011;2125;51.436;14.138;2022-07-04T01:51:26;10.47;;;7.80;;
4222;SDS011;2125;51.436;14.138;2022-07-04T01:53:52;9.43;;;7.60;;
4222;SDS011;2125;51.436;14.138;2022-07-04T01:56:20;10.40;;;8.00;;
4222;SDS011;2125;51.436;14.138;2022-07-04T01:58:47;8.20;;;6.87;;
4222;SDS011;2125;51.436;14.138;2022-07-04T02:01:13;8.77;;;7.60;;
4222;SDS011;2125;51.436;14.138;2022-07-04T02:03:54;8.30;;;7.13;;
4222;SDS011;2125;51.436;14.138;2022-07-04T02:06:21;7.87;;;6.83;;
4222;SDS011;2125;51.436;14.138;2022-07-04T02:08:48;11.93;;;6.77;;
4222;SDS011;2125;51.436;14.138;2022-07-04T02:11:33;9.00;;;7.47;;
4222;SDS011;2125;51.436;14.138;2022-07-04T02:14:14;11.30;;;7.03;;
4222;SDS011;2125;51.436;14.138;2022-07-04T02:16:41;10.67;;;7.63;;
4222;SDS011;2125;51.436;14.138;2022-07-04T02:19:07;9.83;;;7.43;;
4222;SDS011;2125;51.436;14.138;2022-07-04T02:21:34;8.90;;;7.33;;
4222;SDS011;2125;51.436;14.138;2022-07-04T02:24:01;8.30;;;7.30;;
4222;SDS011;2125;51.436;14.138;2022-07-04T02:26:27;8.63;;;6.87;;
4222;SDS011;2125;51.436;14.138;2022-07-04T02:28:55;10.13;;;7.50;;
4222;SDS011;2125;51.436;14.138;2022-07-04T02:31:22;14.00;;;7.70;;
4222;SDS011;2125;51.436;14.138;2022-07-04T02:33:48;9.50;;;7.57;;
4222;SDS011;2125;51.436;14.138;2022-07-04T02:36:15;7.97;;;7.00;;
4222;SDS011;2125;51.436;14.138;2022-07-04T02:38:42;9.30;;;7.50;;
4222;SDS011;2125;51.436;14.138;2022-07-04T02:41:08;9.30;;;7.33;;
4222;SDS011;2125;51.436;14.138;2022-07-04T02:43:35;8.67;;;6.83;;
4222;SDS011;2125;51.436;14.138;2022-07-04T02:46:03;9.90;;;7.17;;
4222;SDS011;2125;51.436;14.138;2022-07-04T02:48:29;7.57;;;6.77;;
4222;SDS011;2125;51.436;14.138;2022-07-04T02:50:56;8.20;;;7.10;;
4222;SDS011;2125;51.436;14.138;2022-07-04T02:53:22;7.53;;;6.83;;
4222;SDS011;2125;51.436;14.138;2022-07-04T02:55:49;9.50;;;7.93;;
4222;SDS011;2125;51.436;14.138;2022-07-04T02:58:15;8.83;;;7.40;;
4222;SDS011;2125;51.436;14.138;2022-07-04T03:00:42;9.93;;;7.53;;
4222;SDS011;2125;51.436;14.138;2022-07-04T03:03:10;9.00;;;7.50;;
4222;SDS011;2125;51.436;14.138;2022-07-04T03:05:36;9.83;;;7.40;;
4222;SDS011;2125;51.436;14.138;2022-07-04T03:08:03;9.60;;;7.47;;
4222;SDS011;2125;51.436;14.138;2022-07-04T03:10:30;10.23;;;7.63;;
4222;SDS011;2125;51.436;14.138;2022-07-04T03:12:57;8.87;;;7.47;;
4222;SDS011;2125;51.436;14.138;2022-07-04T03:15:24;10.60;;;7.23;;
4222;SDS011;2125;51.436;14.138;2022-07-04T03:17:50;9.67;;;7.27;;
4222;SDS011;2125;51.436;14.138;2022-07-04T03:20:18;7.73;;;6.80;;
4222;SDS011;2125;51.436;14.138;2022-07-04T03:22:45;8.67;;;6.80;;
4222;SDS011;2125;51.436;14.138;2022-07-04T03:25:11;10.03;;;7.27;;
4222;SDS011;2125;51.436;14.138;2022-07-04T03:27:38;7.23;;;6.53;;
4222;SDS011;2125;51.436;14.138;2022-07-04T03:30:05;7.90;;;6.97;;
4222;SDS011;2125;51.436;14.138;2022-07-04T03:32:32;8.20;;;6.67;;
4222;SDS011;2125;51.436;14.138;2022-07-04T03:34:58;7.80;;;6.27;;
4222;SDS011;2125;51.436;14.138;2022-07-04T03:37:26;8.80;;;6.73;;
4222;SDS011;2125;51.436;14.138;2022-07-04T03:39:53;8.13;;;6.00;;
4222;SDS011;2125;51.436;14.138;2022-07-04T03:42:20;9.60;;;6.20;;
4222;SDS011;2125;51.436;14.138;2022-07-04T03:44:46;6.47;;;5.50;;
4222;SDS011;2125;51.436;14.138;2022-07-04T03:47:13;5.83;;;5.20;;
4222;SDS011;2125;51.436;14.138;2022-07-04T03:49:40;8.10;;;5.70;;
4222;SDS011;2125;51.436;14.138;2022-07-04T03:52:06;7.17;;;4.83;;
4222;SDS011;2125;51.436;14.138;2022-07-04T03:54:34;9.87;;;6.13;;
4222;SDS011;2125;51.436;14.138;2022-07-04T03:57:01;5.83;;;5.23;;
4222;SDS011;2125;51.436;14.138;2022-07-04T03:59:28;5.83;;;5.20;;
4222;SDS011;2125;51.436;14.138;2022-07-04T04:01:54;6.93;;;5.33;;
4222;SDS011;2125;51.436;14.138;2022-07-04T04:04:21;9.97;;;4.90;;
4222;SDS011;2125;51.436;14.138;2022-07-04T04:07:05;5.20;;;4.70;;
4222;SDS011;2125;51.436;14.138;2022-07-04T04:09:32;4.40;;;4.00;;
4222;SDS011;2125;51.436;14.138;2022-07-04T04:12:00;9.50;;;4.83;;
4222;SDS011;2125;51.436;14.138;2022-07-04T04:14:26;8.60;;;4.20;;
4222;SDS011;2125;51.436;14.138;2022-07-04T04:16:53;7.97;;;4.00;;
4222;SDS011;2125;51.436;14.138;2022-07-04T04:19:20;4.70;;;4.10;;
4222;SDS011;2125;51.436;14.138;2022-07-04T04:21:47;6.33;;;4.63;;
4222;SDS011;2125;51.436;14.138;2022-07-04T04:24:13;4.83;;;4.00;;
4222;SDS011;2125;51.436;14.138;2022-07-04T04:26:40;4.80;;;4.17;;
4222;SDS011;2125;51.436;14.138;2022-07-04T04:29:08;5.10;;;4.60;;
4222;SDS011;2125;51.436;14.138;2022-07-04T04:31:35;4.73;;;4.17;;
4222;SDS011;2125;51.436;14.138;2022-07-04T04:34:02;6.03;;;4.63;;
4222;SDS011;2125;51.436;14.138;2022-07-04T04:36:28;4.80;;;4.30;;
4222;SDS011;2125;51.436;14.138;2022-07-04T04:38:55;11.47;;;4.20;;
4222;SDS011;2125;51.436;14.138;2022-07-04T04:41:21;4.43;;;4.03;;
4222;SDS011;2125;51.436;14.138;2022-07-04T04:43:48;4.83;;;4.30;;
4222;SDS011;2125;51.436;14.138;2022-07-04T04:46:16;4.97;;;4.10;;
4222;SDS011;2125;51.436;14.138;2022-07-04T04:48:43;5.37;;;4.00;;
4222;SDS011;2125;51.436;14.138;2022-07-04T04:51:09;5.93;;;4.63;;
4222;SDS011;2125;51.436;14.138;2022-07-04T04:53:36;6.40;;;4.83;;
4222;SDS011;2125;51.436;14.138;2022-07-04T04:56:03;8.43;;;4.60;;
4222;SDS011;2125;51.436;14.138;2022-07-04T04:58:29;7.13;;;4.03;;
4222;SDS011;2125;51.436;14.138;2022-07-04T05:00:56;6.07;;;4.60;;
4222;SDS011;2125;51.436;14.138;2022-07-04T05:03:24;6.03;;;4.60;;
4222;SDS011;2125;51.436;14.138;2022-07-04T05:05:50;6.50;;;4.63;;
4222;SDS011;2125;51.436;14.138;2022-07-04T05:08:17;6.13;;;4.77;;
4222;SDS011;2125;51.436;14.138;2022-07-04T05:10:43;5.57;;;5.03;;
4222;SDS011;2125;51.436;14.138;2022-07-04T05:13:10;11.30;;;4.03;;
4222;SDS011;2125;51.436;14.138;2022-07-04T05:15:37;6.13;;;4.73;;
4222;SDS011;2125;51.436;14.138;2022-07-04T05:18:03;7.50;;;5.27;;
4222;SDS011;2125;51.436;14.138;2022-07-04T05:20:31;6.37;;;5.20;;
4222;SDS011;2125;51.436;14.138;2022-07-04T05:22:58;5.20;;;3.97;;
4222;SDS011;2125;51.436;14.138;2022-07-04T05:25:25;8.03;;;4.50;;
4222;SDS011;2125;51.436;14.138;2022-07-04T05:27:52;5.67;;;4.70;;
4222;SDS011;2125;51.436;14.138;2022-07-04T05:30:18;6.23;;;4.60;;
4222;SDS011;2125;51.436;14.138;2022-07-04T05:32:45;5.20;;;4.27;;
4222;SDS011;2125;51.436;14.138;2022-07-04T05:35:12;4.57;;;4.10;;
4222;SDS011;2125;51.436;14.138;2022-07-04T05:37:39;5.77;;;4.37;;
4222;SDS011;2125;51.436;14.138;2022-07-04T05:40:06;5.00;;;4.47;;
4222;SDS011;2125;51.436;14.138;2022-07-04T05:42:34;5.77;;;4.60;;
4222;SDS011;2125;51.436;14.138;2022-07-04T05:45:01;4.63;;;3.87;;
4222;SDS011;2125;51.436;14.138;2022-07-04T05:47:28;6.30;;;4.27;;
4222;SDS011;2125;51.436;14.138;2022-07-04T05:49:55;4.27;;;3.20;;
4222;SDS011;2125;51.436;14.138;2022-07-04T05:52:21;6.63;;;4.03;;
4222;SDS011;2125;51.436;14.138;2022-07-04T05:54:49;8.10;;;3.80;;
4222;SDS011;2125;51.436;14.138;2022-07-04T05:57:16;6.07;;;4.17;;
4222;SDS011;2125;51.436;14.138;2022-07-04T05:59:43;7.73;;;3.90;;
4222;SDS011;2125;51.436;14.138;2022-07-04T06:02:10;4.27;;;3.87;;
4222;SDS011;2125;51.436;14.138;2022-07-04T06:04:36;6.03;;;3.70;;
4222;SDS011;2125;51.436;14.138;2022-07-04T06:07:03;5.60;;;3.93;;
4222;SDS011;2125;51.436;14.138;2022-07-04T06:09:30;7.67;;;3.90;;
4222;SDS011;2125;51.436;14.138;2022-07-04T06:11:58;5.33;;;3.17;;
4222;SDS011;2125;51.436;14.138;2022-07-04T06:14:24;4.43;;;3.50;;
4222;SDS011;2125;51.436;14.138;2022-07-04T06:16:51;3.43;;;3.13;;
4222;SDS011;2125;51.436;14.138;2022-07-04T06:19:17;3.90;;;3.10;;
4222;SDS011;2125;51.436;14.138;2022-07-04T06:21:44;4.60;;;3.40;;
4222;SDS011;2125;51.436;14.138;2022-07-04T06:24:11;3.50;;;3.20;;
4222;SDS011;2125;51.436;14.138;2022-07-04T06:26:37;9.00;;;3.60;;
4222;SDS011;2125;51.436;14.138;2022-07-04T06:29:05;3.60;;;3.30;;
4222;SDS011;2125;51.436;14.138;2022-07-04T06:31:33;5.30;;;3.37;;
4222;SDS011;2125;51.436;14.138;2022-07-04T06:33:59;5.20;;;3.00;;
4222;SDS011;2125;51.436;14.138;2022-07-04T06:36:44;3.60;;;3.27;;
4222;SDS011;2125;51.436;14.138;2022-07-04T06:39:10;4.70;;;3.80;;
4222;SDS011;2125;51.436;14.138;2022-07-04T06:41:37;3.63;;;3.33;;
4222;SDS011;2125;51.436;14.138;2022-07-04T06:44:05;4.67;;;3.60;;
4222;SDS011;2125;51.436;14.138;2022-07-04T06:46:31;3.73;;;3.30;;
4222;SDS011;2125;51.436;14.138;2022-07-04T06:48:58;4.63;;;3.67;;
4222;SDS011;2125;51.436;14.138;2022-07-04T06:51:25;7.00;;;3.90;;
4222;SDS011;2125;51.436;14.138;2022-07-04T06:53:51;8.97;;;3.50;;
4222;SDS011;2125;51.436;14.138;2022-07-04T06:56:18;5.00;;;3.80;;
4222;SDS011;2125;51.436;14.138;2022-07-04T06:58:45;4.30;;;3.90;;
4222;SDS011;2125;51.436;14.138;2022-07-04T07:01:13;7.63;;;3.57;;
4222;SDS011;2125;51.436;14.138;2022-07-04T07:03:42;4.07;;;3.77;;
4222;SDS011;2125;51.436;14.138;2022-07-04T07:06:08;3.73;;;3.43;;
4222;SDS011;2125;51.436;14.138;2022-07-04T07:08:35;6.00;;;4.10;;
4222;SDS011;2125;51.436;14.138;2022-07-04T07:11:01;3.90;;;3.47;;
4222;SDS011;2125;51.436;14.138;2022-07-04T07:13:38;4.30;;;3.90;;
4222;SDS011;2125;51.436;14.138;2022-07-04T07:16:05;4.20;;;3.80;;
4222;SDS011;2125;51.436;14.138;2022-07-04T07:18:33;5.67;;;3.47;;
4222;SDS011;2125;51.436;14.138;2022-07-04T07:21:00;5.03;;;3.73;;
4222;SDS011;2125;51.436;14.138;2022-07-04T07:23:27;4.50;;;3.77;;
4222;SDS011;2125;51.436;14.138;2022-07-04T07:25:53;6.70;;;4.03;;
4222;SDS011;2125;51.436;14.138;2022-07-04T07:28:20;7.57;;;4.00;;
4222;SDS011;2125;51.436;14.138;2022-07-04T07:30:46;8.30;;;3.90;;
4222;SDS011;2125;51.436;14.138;2022-07-04T07:33:13;4.30;;;3.90;;
4222;SDS011;2125;51.436;14.138;2022-07-04T07:35:41;5.20;;;4.00;;
4222;SDS011;2125;51.436;14.138;2022-07-04T07:38:08;6.90;;;3.93;;
4222;SDS011;2125;51.436;14.138;2022-07-04T07:40:34;3.70;;;3.40;;
4222;SDS011;2125;51.436;14.138;2022-07-04T07:43:01;4.03;;;3.63;;
4222;SDS011;2125;51.436;14.138;2022-07-04T07:45:27;5.67;;;4.00;;
4222;SDS011;2125;51.436;14.138;2022-07-04T07:47:54;5.07;;;3.70;;
4222;SDS011;2125;51.436;14.138;2022-07-04T07:50:21;4.00;;;3.60;;
4222;SDS011;2125;51.436;14.138;2022-07-04T07:52:48;3.90;;;3.50;;
4222;SDS011;2125;51.436;14.138;2022-07-04T07:55:15;6.67;;;3.90;;
4222;SDS011;2125;51.436;14.138;2022-07-04T07:57:42;5.17;;;3.70;;
4222;SDS011;2125;51.436;14.138;2022-07-04T08:00:09;12.03;;;3.40;;
4222;SDS011;2125;51.436;14.138;2022-07-04T08:02:36;3.97;;;3.50;;
4222;SDS011;2125;51.436;14.138;2022-07-04T08:05:21;4.60;;;3.60;;
4222;SDS011;2125;51.436;14.138;2022-07-04T08:07:48;4.27;;;3.43;;
4222;SDS011;2125;51.436;14.138;2022-07-04T08:10:15;4.67;;;3.63;;
4222;SDS011;2125;51.436;14.138;2022-07-04T08:12:44;4.90;;;3.53;;
4222;SDS011;2125;51.436;14.138;2022-07-04T08:15:10;5.37;;;4.07;;
4222;SDS011;2125;51.436;14.138;2022-07-04T08:17:37;5.63;;;3.60;;
4222;SDS011;2125;51.436;14.138;2022-07-04T08:20:04;4.53;;;3.83;;
4222;SDS011;2125;51.436;14.138;2022-07-04T08:22:31;4.43;;;3.87;;
4222;SDS011;2125;51.436;14.138;2022-07-04T08:24:59;6.13;;;3.83;;
4222;SDS011;2125;51.436;14.138;2022-07-04T08:27:26;3.60;;;3.10;;
4222;SDS011;2125;51.436;14.138;2022-07-04T08:29:52;3.60;;;3.27;;
4222;SDS011;2125;51.436;14.138;2022-07-04T08:32:19;4.87;;;3.10;;
4222;SDS011;2125;51.436;14.138;2022-07-04T08:34:46;3.50;;;3.20;;
4222;SDS011;2125;51.436;14.138;2022-07-04T08:37:13;3.50;;;3.20;;
4222;SDS011;2125;51.436;14.138;2022-07-04T08:39:40;3.03;;;2.83;;
4222;SDS011;2125;51.436;14.138;2022-07-04T08:42:09;3.43;;;2.90;;
4222;SDS011;2125;51.436;14.138;2022-07-04T08:44:41;3.70;;;3.40;;
4222;SDS011;2125;51.436;14.138;2022-07-04T08:47:14;6.27;;;3.50;;
4222;SDS011;2125;51.436;14.138;2022-07-04T08:49:44;3.70;;;3.33;;
4222;SDS011;2125;51.436;14.138;2022-07-04T08:52:17;3.83;;;3.33;;
4222;SDS011;2125;51.436;14.138;2022-07-04T08:54:53;4.40;;;3.60;;
4222;SDS011;2125;51.436;14.138;2022-07-04T08:57:40;5.30;;;3.30;;
4222;SDS011;2125;51.436;14.138;2022-07-04T09:00:26;5.80;;;2.80;;
4222;SDS011;2125;51.436;14.138;2022-07-04T09:02:53;3.43;;;2.83;;
4222;SDS011;2125;51.436;14.138;2022-07-04T09:05:20;5.50;;;3.30;;
4222;SDS011;2125;51.436;14.138;2022-07-04T09:07:46;3.80;;;3.40;;
4222;SDS011;2125;51.436;14.138;2022-07-04T09:10:13;3.83;;;3.10;;
4222;SDS011;2125;51.436;14.138;2022-07-04T09:12:42;6.17;;;3.50;;
4222;SDS011;2125;51.436;14.138;2022-07-04T09:15:08;2.80;;;2.60;;
4222;SDS011;2125;51.436;14.138;2022-07-04T09:17:35;6.53;;;3.00;;
4222;SDS011;2125;51.436;14.138;2022-07-04T09:20:13;3.33;;;3.03;;
4222;SDS011;2125;51.436;14.138;2022-07-04T09:22:41;4.17;;;3.20;;
4222;SDS011;2125;51.436;14.138;2022-07-04T09:25:08;3.20;;;2.90;;
4222;SDS011;2125;51.436;14.138;2022-07-04T09:27:38;4.47;;;2.90;;
4222;SDS011;2125;51.436;14.138;2022-07-04T09:30:08;2.93;;;2.50;;
4222;SDS011;2125;51.436;14.138;2022-07-04T09:32:37;3.80;;;2.40;;
4222;SDS011;2125;51.436;14.138;2022-07-04T09:35:05;2.57;;;2.37;;
4222;SDS011;2125;51.436;14.138;2022-07-04T09:37:34;4.57;;;2.50;;
4222;SDS011;2125;51.436;14.138;2022-07-04T09:40:03;10.13;;;2.90;;
4222;SDS011;2125;51.436;14.138;2022-07-04T09:42:35;3.13;;;2.53;;
4222;SDS011;2125;51.436;14.138;2022-07-04T09:45:09;7.80;;;2.70;;
4222;SDS011;2125;51.436;14.138;2022-07-04T09:47:37;6.80;;;2.60;;
4222;SDS011;2125;51.436;14.138;2022-07-04T09:50:06;2.40;;;2.20;;
4222;SDS011;2125;51.436;14.138;2022-07-04T09:52:44;4.00;;;2.47;;
4222;SDS011;2125;51.436;14.138;2022-07-04T09:55:11;4.73;;;2.70;;
4222;SDS011;2125;51.436;14.138;2022-07-04T09:57:44;2.60;;;2.40;;
4222;SDS011;2125;51.436;14.138;2022-07-04T10:00:20;3.57;;;2.73;;
4222;SDS011;2125;51.436;14.138;2022-07-04T10:02:49;2.63;;;2.30;;
4222;SDS011;2125;51.436;14.138;2022-07-04T10:05:20;3.83;;;2.43;;
4222;SDS011;2125;51.436;14.138;2022-07-04T10:07:47;6.03;;;2.60;;
4222;SDS011;2125;51.436;14.138;2022-07-04T10:10:22;2.90;;;2.40;;
4222;SDS011;2125;51.436;14.138;2022-07-04T10:12:56;3.80;;;2.40;;
4222;SDS011;2125;51.436;14.138;2022-07-04T10:15:26;4.13;;;2.60;;
4222;SDS011;2125;51.436;14.138;2022-07-04T10:17:53;4.10;;;2.53;;
4222;SDS011;2125;51.436;14.138;2022-07-04T10:20:20;4.90;;;2.50;;
4222;SDS011;2125;51.436;14.138;2022-07-04T10:22:47;3.67;;;2.30;;
4222;SDS011;2125;51.436;14.138;2022-07-04T10:25:14;3.00;;;2.47;;
4222;SDS011;2125;51.436;14.138;2022-07-04T10:27:40;6.07;;;2.93;;
4222;SDS011;2125;51.436;14.138;2022-07-04T10:30:09;3.30;;;2.40;;
4222;SDS011;2125;51.436;14.138;2022-07-04T10:32:39;3.50;;;2.70;;
4222;SDS011;2125;51.436;14.138;2022-07-04T10:35:08;3.00;;;2.43;;
4222;SDS011;2125;51.436;14.138;2022-07-04T10:40:38;10.30;;;2.60;;
4222;SDS011;2125;51.436;14.138;2022-07-04T10:48:53;3.03;;;2.30;;
4222;SDS011;2125;51.436;14.138;2022-07-04T10:51:37;2.67;;;2.20;;
4222;SDS011;2125;51.436;14.138;2022-07-04T10:54:07;5.63;;;2.47;;
4222;SDS011;2125;51.436;14.138;2022-07-04T10:56:35;3.13;;;2.10;;
4222;SDS011;2125;51.436;14.138;2022-07-04T10:59:07;2.57;;;2.30;;
4222;SDS011;2125;51.436;14.138;2022-07-04T11:01:35;2.60;;;2.40;;
4222;SDS011;2125;51.436;14.138;2022-07-04T11:04:03;4.53;;;2.60;;
4222;SDS011;2125;51.436;14.138;2022-07-04T11:06:49;2.80;;;2.07;;
4222;SDS011;2125;51.436;14.138;2022-07-04T11:09:17;4.03;;;2.10;;
4222;SDS011;2125;51.436;14.138;2022-07-04T11:11:48;3.20;;;2.37;;
4222;SDS011;2125;51.436;14.138;2022-07-04T11:14:39;2.73;;;2.13;;
4222;SDS011;2125;51.436;14.138;2022-07-04T11:17:08;2.67;;;2.47;;
4222;SDS011;2125;51.436;14.138;2022-07-04T11:19:37;4.50;;;2.47;;
4222;SDS011;2125;51.436;14.138;2022-07-04T11:22:04;4.80;;;2.60;;
4222;SDS011;2125;51.436;14.138;2022-07-04T11:24:32;3.87;;;2.50;;
4222;SDS011;2125;51.436;14.138;2022-07-04T11:26:59;3.07;;;2.47;;
4222;SDS011;2125;51.436;14.138;2022-07-04T11:29:26;3.83;;;2.53;;
4222;SDS011;2125;51.436;14.138;2022-07-04T11:31:53;8.83;;;2.53;;
4222;SDS011;2125;51.436;14.138;2022-07-04T11:34:20;2.70;;;2.30;;
4222;SDS011;2125;51.436;14.138;2022-07-04T11:36:49;8.80;;;2.40;;
4222;SDS011;2125;51.436;14.138;2022-07-04T11:39:17;3.07;;;2.63;;
4222;SDS011;2125;51.436;14.138;2022-07-04T11:41:46;3.43;;;2.30;;
4222;SDS011;2125;51.436;14.138;2022-07-04T11:44:34;2.60;;;2.10;;
4222;SDS011;2125;51.436;14.138;2022-07-04T11:47:35;4.13;;;2.07;;
4222;SDS011;2125;51.436;14.138;2022-07-04T11:50:03;2.60;;;1.93;;
4222;SDS011;2125;51.436;14.138;2022-07-04T11:52:39;4.40;;;2.30;;
4222;SDS011;2125;51.436;14.138;2022-07-04T11:55:07;3.20;;;2.00;;
4222;SDS011;2125;51.436;14.138;2022-07-04T11:57:36;3.00;;;2.20;;
4222;SDS011;2125;51.436;14.138;2022-07-04T12:00:04;3.30;;;2.50;;
4222;SDS011;2125;51.436;14.138;2022-07-04T12:02:33;7.73;;;2.27;;
4222;SDS011;2125;51.436;14.138;2022-07-04T12:05:01;2.80;;;2.20;;
4222;SDS011;2125;51.436;14.138;2022-07-04T12:07:29;2.33;;;2.10;;
4222;SDS011;2125;51.436;14.138;2022-07-04T12:10:06;2.17;;;2.00;;
4222;SDS011;2125;51.436;14.138;2022-07-04T12:12:34;6.60;;;2.40;;
4222;SDS011;2125;51.436;14.138;2022-07-04T12:15:02;4.23;;;2.50;;
4222;SDS011;2125;51.436;14.138;2022-07-04T12:17:30;6.20;;;2.20;;
4222;SDS011;2125;51.436;14.138;2022-07-04T12:19:59;3.17;;;2.10;;
4222;SDS011;2125;51.436;14.138;2022-07-04T12:22:28;4.90;;;2.40;;
4222;SDS011;2125;51.436;14.138;2022-07-04T12:25:02;3.90;;;2.17;;
4222;SDS011;2125;51.436;14.138;2022-07-04T12:27:30;3.47;;;2.03;;
4222;SDS011;2125;51.436;14.138;2022-07-04T12:29:58;3.30;;;2.00;;
4222;SDS011;2125;51.436;14.138;2022-07-04T12:32:43;1.97;;;1.87;;
4222;SDS011;2125;51.436;14.138;2022-07-04T12:38:02;3.50;;;2.20;;
4222;SDS011;2125;51.436;14.138;2022-07-04T12:40:31;2.20;;;2.00;;
4222;SDS011;2125;51.436;14.138;2022-07-04T12:42:59;2.30;;;1.80;;
4222;SDS011;2125;51.436;14.138;2022-07-04T12:45:25;4.50;;;2.03;;
4222;SDS011;2125;51.436;14.138;2022-07-04T12:48:13;4.40;;;2.20;;
4222;SDS011;2125;51.436;14.138;2022-07-04T12:50:40;4.17;;;2.40;;
4222;SDS011;2125;51.436;14.138;2022-07-04T12:53:08;2.90;;;2.50;;
4222;SDS011;2125;51.436;14.138;2022-07-04T12:55:37;2.10;;;1.97;;
4222;SDS011;2125;51.436;14.138;2022-07-04T12:58:06;2.60;;;2.10;;
4222;SDS011;2125;51.436;14.138;2022-07-04T13:00:33;7.23;;;2.20;;
4222;SDS011;2125;51.436;14.138;2022-07-04T13:03:00;4.30;;;2.20;;
4222;SDS011;2125;51.436;14.138;2022-07-04T13:05:27;2.40;;;2.20;;
4222;SDS011;2125;51.436;14.138;2022-07-04T13:07:53;3.57;;;2.50;;
4222;SDS011;2125;51.436;14.138;2022-07-04T13:10:20;2.77;;;2.40;;
4222;SDS011;2125;51.436;14.138;2022-07-04T13:12:48;3.70;;;2.77;;
4222;SDS011;2125;51.436;14.138;2022-07-04T13:15:14;4.70;;;2.37;;
4222;SDS011;2125;51.436;14.138;2022-07-04T13:17:41;3.00;;;2.30;;
4222;SDS011;2125;51.436;14.138;2022-07-04T13:20:08;2.80;;;2.30;;
4222;SDS011;2125;51.436;14.138;2022-07-04T13:22:35;2.23;;;2.03;;
4222;SDS011;2125;51.436;14.138;2022-07-04T13:25:02;3.63;;;2.20;;
4222;SDS011;2125;51.436;14.138;2022-07-04T13:27:28;3.20;;;2.20;;
4222;SDS011;2125;51.436;14.138;2022-07-04T13:29:57;3.30;;;1.90;;
4222;SDS011;2125;51.436;14.138;2022-07-04T13:32:23;4.37;;;2.10;;
4222;SDS011;2125;51.436;14.138;2022-07-04T13:34:50;3.13;;;2.47;;
4222;SDS011;2125;51.436;14.138;2022-07-04T13:37:17;4.13;;;2.47;;
4222;SDS011;2125;51.436;14.138;2022-07-04T13:39:44;4.17;;;2.17;;
4222;SDS011;2125;51.436;14.138;2022-07-04T13:42:10;4.43;;;2.40;;
4222;SDS011;2125;51.436;14.138;2022-07-04T13:44:38;2.40;;;1.90;;
4222;SDS011;2125;51.436;14.138;2022-07-04T13:47:06;4.23;;;2.30;;
4222;SDS011;2125;51.436;14.138;2022-07-04T13:49:32;2.73;;;1.93;;
4222;SDS011;2125;51.436;14.138;2022-07-04T13:51:59;2.43;;;1.90;;
4222;SDS011;2125;51.436;14.138;2022-07-04T13:54:25;2.03;;;1.80;;
4222;SDS011;2125;51.436;14.138;2022-07-04T13:56:52;1.70;;;1.60;;
4222;SDS011;2125;51.436;14.138;2022-07-04T13:59:19;3.37;;;2.00;;
4222;SDS011;2125;51.436;14.138;2022-07-04T14:01:45;2.30;;;2.10;;
4222;SDS011;2125;51.436;14.138;2022-07-04T14:04:13;3.63;;;2.23;;
4222;SDS011;2125;51.436;14.138;2022-07-04T14:06:40;1.80;;;1.70;;
4222;SDS011;2125;51.436;14.138;2022-07-04T14:09:07;2.50;;;2.17;;
4222;SDS011;2125;51.436;14.138;2022-07-04T14:11:33;2.07;;;1.83;;
4222;SDS011;2125;51.436;14.138;2022-07-04T14:14:00;2.93;;;2.00;;
4222;SDS011;2125;51.436;14.138;2022-07-04T14:16:26;4.17;;;1.90;;
4222;SDS011;2125;51.436;14.138;2022-07-04T14:18:53;4.03;;;1.70;;
4222;SDS011;2125;51.436;14.138;2022-07-04T14:21:21;2.73;;;2.07;;
4222;SDS011;2125;51.436;14.138;2022-07-04T14:23:48;3.37;;;1.67;;
4222;SDS011;2125;51.436;14.138;2022-07-04T14:26:16;4.60;;;2.00;;
4222;SDS011;2125;51.436;14.138;2022-07-04T14:28:44;4.97;;;1.97;;
4222;SDS011;2125;51.436;14.138;2022-07-04T14:31:11;1.80;;;1.70;;
4222;SDS011;2125;51.436;14.138;2022-07-04T14:33:38;2.57;;;1.60;;
4222;SDS011;2125;51.436;14.138;2022-07-04T14:36:05;2.93;;;2.07;;
4222;SDS011;2125;51.436;14.138;2022-07-04T14:38:34;1.93;;;1.80;;
4222;SDS011;2125;51.436;14.138;2022-07-04T14:41:01;2.80;;;2.00;;
4222;SDS011;2125;51.436;14.138;2022-07-04T14:43:36;3.63;;;2.40;;
4222;SDS011;2125;51.436;14.138;2022-07-04T14:46:03;3.20;;;1.87;;
4222;SDS011;2125;51.436;14.138;2022-07-04T14:48:30;2.57;;;2.27;;
4222;SDS011;2125;51.436;14.138;2022-07-04T14:50:57;6.17;;;2.30;;
4222;SDS011;2125;51.436;14.138;2022-07-04T14:53:23;2.23;;;2.03;;
4222;SDS011;2125;51.436;14.138;2022-07-04T14:55:51;2.73;;;2.20;;
4222;SDS011;2125;51.436;14.138;2022-07-04T14:58:18;3.03;;;2.17;;
4222;SDS011;2125;51.436;14.138;2022-07-04T15:00:45;2.00;;;1.80;;
4222;SDS011;2125;51.436;14.138;2022-07-04T15:03:12;2.30;;;2.00;;
4222;SDS011;2125;51.436;14.138;2022-07-04T15:05:39;6.00;;;2.17;;
4222;SDS011;2125;51.436;14.138;2022-07-04T15:08:06;2.33;;;1.80;;
4222;SDS011;2125;51.436;14.138;2022-07-04T15:10:32;2.60;;;1.80;;
4222;SDS011;2125;51.436;14.138;2022-07-04T15:13:00;3.83;;;2.10;;
4222;SDS011;2125;51.436;14.138;2022-07-04T15:15:27;4.23;;;2.03;;
4222;SDS011;2125;51.436;14.138;2022-07-04T15:17:53;2.30;;;2.10;;